createdAt,value
2022-11-30T00:02:43.369Z,6.40
2022-11-30T00:05:28.909Z,6.40
2022-11-30T00:08:14.372Z,6.50
2022-11-30T00:11:00.092Z,6.50
2022-11-30T00:13:45.224Z,6.50
2022-11-30T00:16:30.931Z,6.40
2022-11-30T00:19:16.134Z,6.40
2022-11-30T00:22:01.833Z,6.30
2022-11-30T00:24:47.534Z,6.30
2022-11-30T00:27:33.880Z,6.30
2022-11-30T00:30:19.362Z,6.20
2022-11-30T00:33:04.643Z,6.20
2022-11-30T00:36:05.999Z,6.20
2022-11-30T00:38:52.115Z,6.20
2022-11-30T00:41:37.428Z,6.20
2022-11-30T00:44:23.320Z,6.10
2022-11-30T00:47:08.860Z,6.20
2022-11-30T00:49:54.494Z,6.20
2022-11-30T00:52:40.282Z,6.30
2022-11-30T00:55:26.171Z,6.30
2022-11-30T00:58:12.392Z,6.30
2022-11-30T01:00:58.097Z,6.20
2022-11-30T01:03:43.640Z,6.20
2022-11-30T01:06:29.198Z,6.20
2022-11-30T01:09:14.764Z,6.20
2022-11-30T01:12:00.477Z,6.20
2022-11-30T01:14:46.383Z,6.30
2022-11-30T01:17:32.012Z,6.30
2022-11-30T01:20:17.671Z,6.30
2022-11-30T01:23:03.208Z,6.30
2022-11-30T01:25:55.912Z,6.20
2022-11-30T01:28:44.088Z,6.20
2022-11-30T01:31:29.856Z,6.10
2022-11-30T01:34:15.279Z,6.10
2022-11-30T01:37:00.662Z,6.10
2022-11-30T01:39:46.208Z,6.10
2022-11-30T01:42:33.078Z,6.00
2022-11-30T01:45:19.089Z,5.90
2022-11-30T01:48:05.612Z,5.90
2022-11-30T01:50:50.898Z,5.90
2022-11-30T01:53:36.390Z,6.00
2022-11-30T01:56:21.824Z,6.00
2022-11-30T01:59:07.442Z,6.10
2022-11-30T02:01:53.944Z,6.20
2022-11-30T02:04:39.457Z,6.20
2022-11-30T02:07:25.227Z,6.30
2022-11-30T02:10:19.362Z,6.30
2022-11-30T02:13:04.664Z,6.30
2022-11-30T02:16:24.877Z,6.30
2022-11-30T02:19:16.361Z,6.30
2022-11-30T02:22:19.610Z,6.30
2022-11-30T02:25:28.935Z,6.30
2022-11-30T02:28:51.589Z,6.30
2022-11-30T02:31:50.991Z,6.30
2022-11-30T02:34:38.085Z,6.40
2022-11-30T02:37:25.788Z,6.20
2022-11-30T02:40:14.982Z,6.10
2022-11-30T02:43:04.529Z,6.10
2022-11-30T02:46:02.257Z,6.20
2022-11-30T02:49:00.610Z,6.10
2022-11-30T02:51:48.161Z,6.10
2022-11-30T02:54:34.724Z,6.00
2022-11-30T02:57:20.264Z,6.10
2022-11-30T03:00:08.143Z,6.10
2022-11-30T03:02:53.673Z,6.10
2022-11-30T03:05:39.148Z,6.20
2022-11-30T03:08:24.599Z,6.20
2022-11-30T03:11:09.924Z,6.20
2022-11-30T03:13:55.539Z,6.20
2022-11-30T03:16:41.080Z,6.20
2022-11-30T03:19:26.498Z,6.30
2022-11-30T03:22:12.306Z,6.30
2022-11-30T03:24:57.764Z,6.40
2022-11-30T03:27:43.365Z,6.40
2022-11-30T03:30:28.923Z,6.40
2022-11-30T03:33:14.604Z,6.30
2022-11-30T03:36:05.813Z,6.30
2022-11-30T03:38:51.204Z,6.30
2022-11-30T03:41:36.484Z,6.30
2022-11-30T03:44:22.334Z,6.30
2022-11-30T03:47:07.876Z,6.40
2022-11-30T03:49:53.377Z,6.40
2022-11-30T03:52:39.078Z,6.40
2022-11-30T03:55:24.640Z,6.40
2022-11-30T03:58:10.648Z,6.40
2022-11-30T04:01:04.844Z,6.30
2022-11-30T04:03:51.819Z,6.40
2022-11-30T04:06:37.211Z,6.30
2022-11-30T04:09:22.752Z,6.20
2022-11-30T04:12:08.133Z,6.20
2022-11-30T04:14:53.817Z,6.30
2022-11-30T04:17:39.280Z,6.30
2022-11-30T04:20:25.552Z,6.30
2022-11-30T04:23:11.941Z,6.30
2022-11-30T04:25:58.180Z,6.30
2022-11-30T04:28:43.698Z,6.30
2022-11-30T04:31:29.216Z,6.40
2022-11-30T04:34:14.589Z,6.30
2022-11-30T04:37:00.702Z,6.30
2022-11-30T04:39:46.660Z,6.30
2022-11-30T04:42:32.263Z,6.20
2022-11-30T04:45:17.836Z,6.30
2022-11-30T04:48:03.841Z,6.30
2022-11-30T04:50:49.419Z,6.20
2022-11-30T04:53:36.946Z,6.30
2022-11-30T04:56:22.402Z,6.20
2022-11-30T04:59:07.855Z,6.10
2022-11-30T05:01:54.464Z,6.10
2022-11-30T05:04:39.673Z,6.10
2022-11-30T05:07:25.668Z,6.10
2022-11-30T05:10:11.573Z,6.10
2022-11-30T05:12:57.326Z,6.20
2022-11-30T05:15:42.649Z,6.10
2022-11-30T05:18:29.685Z,6.10
2022-11-30T05:21:16.020Z,6.10
2022-11-30T05:24:01.459Z,6.20
2022-11-30T05:26:46.991Z,6.20
2022-11-30T05:29:35.262Z,6.20
2022-11-30T05:32:20.716Z,6.20
2022-11-30T05:35:06.397Z,6.20
2022-11-30T05:37:51.871Z,6.10
2022-11-30T05:40:37.567Z,6.20
2022-11-30T05:43:22.932Z,6.20
2022-11-30T05:46:09.917Z,6.30
2022-11-30T05:48:55.613Z,6.30
2022-11-30T05:51:41.215Z,6.30
2022-11-30T05:54:26.665Z,6.30
2022-11-30T05:57:12.196Z,6.30
2022-11-30T05:59:57.596Z,6.30
2022-11-30T06:02:43.092Z,6.30
2022-11-30T06:05:29.156Z,6.30
2022-11-30T06:08:14.919Z,6.30
2022-11-30T06:11:01.452Z,6.30
2022-11-30T06:13:47.205Z,6.30
2022-11-30T06:16:32.797Z,6.20
2022-11-30T06:19:18.081Z,6.20
2022-11-30T06:22:03.873Z,6.20
2022-11-30T06:24:49.536Z,6.20
2022-11-30T06:27:35.009Z,6.20
2022-11-30T06:30:21.948Z,6.20
2022-11-30T06:33:07.640Z,6.10
2022-11-30T06:35:53.140Z,6.10
2022-11-30T06:38:38.508Z,6.20
2022-11-30T06:41:24.415Z,6.20
2022-11-30T06:44:11.185Z,6.10
2022-11-30T06:46:56.610Z,6.10
2022-11-30T06:49:42.051Z,6.20
2022-11-30T06:52:27.654Z,6.10
2022-11-30T06:55:13.197Z,6.20
2022-11-30T06:58:11.467Z,6.20
2022-11-30T07:00:57.176Z,6.20
2022-11-30T07:03:42.760Z,6.20
2022-11-30T07:06:28.446Z,6.30
2022-11-30T07:09:14.488Z,6.30
2022-11-30T07:12:01.114Z,6.20
2022-11-30T07:14:46.869Z,6.20
2022-11-30T07:17:32.496Z,6.20
2022-11-30T07:20:18.323Z,6.20
2022-11-30T07:23:22.751Z,6.30
2022-11-30T07:26:09.377Z,6.30
2022-11-30T07:28:58.070Z,6.20
2022-11-30T07:31:43.273Z,6.30
2022-11-30T07:34:28.977Z,6.40
2022-11-30T07:37:14.158Z,6.40
2022-11-30T07:39:59.892Z,6.40
2022-11-30T07:42:45.601Z,6.30
2022-11-30T07:45:31.208Z,6.40
2022-11-30T07:48:16.718Z,6.40
2022-11-30T07:51:07.463Z,6.20
2022-11-30T07:53:55.308Z,6.20
2022-11-30T07:56:40.699Z,6.30
2022-11-30T07:59:26.499Z,6.30
2022-11-30T08:02:12.159Z,6.20
2022-11-30T08:04:58.811Z,6.20
2022-11-30T08:07:45.844Z,6.20
2022-11-30T08:10:31.868Z,6.30
2022-11-30T08:13:17.738Z,6.30
2022-11-30T08:16:08.317Z,6.30
2022-11-30T08:18:56.698Z,6.40
2022-11-30T08:21:41.968Z,6.40
2022-11-30T08:24:27.429Z,6.50
2022-11-30T08:27:12.926Z,6.50
2022-11-30T08:29:58.620Z,6.40
2022-11-30T08:32:44.318Z,6.40
2022-11-30T08:35:29.673Z,6.50
2022-11-30T08:38:15.256Z,6.30
2022-11-30T08:41:00.926Z,6.30
2022-11-30T08:43:47.262Z,6.40
2022-11-30T08:49:38.590Z,6.40
2022-11-30T08:52:24.348Z,6.40
2022-11-30T08:55:10.157Z,6.30
2022-11-30T08:57:56.016Z,6.30
2022-11-30T09:00:41.468Z,6.30
2022-11-30T09:03:26.850Z,6.50
2022-11-30T09:06:17.624Z,6.50
2022-11-30T09:09:03.347Z,6.70
2022-11-30T09:11:48.829Z,6.70
2022-11-30T09:14:34.276Z,6.70
2022-11-30T09:17:19.696Z,6.70
2022-11-30T09:20:06.117Z,6.70
2022-11-30T09:22:51.777Z,6.70
2022-11-30T09:25:37.040Z,6.90
2022-11-30T09:28:22.417Z,6.90
2022-11-30T09:31:13.649Z,6.90
2022-11-30T09:33:59.306Z,7.00
2022-11-30T09:36:44.648Z,7.00
2022-11-30T09:39:30.258Z,7.10
2022-11-30T09:42:45.684Z,6.90
2022-11-30T09:45:34.977Z,6.90
2022-11-30T09:48:54.474Z,7.00
2022-11-30T09:51:47.639Z,7.00
2022-11-30T09:54:39.924Z,7.00
2022-11-30T09:57:43.936Z,7.10
2022-11-30T10:00:29.798Z,7.10
2022-11-30T10:03:15.957Z,7.00
2022-11-30T10:06:10.938Z,7.10
2022-11-30T10:08:56.761Z,7.10
2022-11-30T10:11:52.823Z,6.90
2022-11-30T10:14:57.266Z,6.90
2022-11-30T10:17:55.625Z,7.00
2022-11-30T10:21:07.322Z,7.10
2022-11-30T10:24:02.173Z,7.20
2022-11-30T10:26:54.581Z,7.20
2022-11-30T10:29:43.186Z,7.10
2022-11-30T10:32:40.564Z,7.20
2022-11-30T10:35:37.705Z,7.40
2022-11-30T10:38:34.217Z,7.40
2022-11-30T10:41:34.989Z,7.10
2022-11-30T10:44:43.580Z,7.10
2022-11-30T10:47:34.013Z,7.20
2022-11-30T10:50:27.912Z,7.20
2022-11-30T10:53:14.161Z,7.20
2022-11-30T10:56:12.296Z,7.20
2022-11-30T10:59:02.489Z,7.30
2022-11-30T11:01:48.332Z,7.40
2022-11-30T11:04:33.644Z,7.50
2022-11-30T11:07:19.656Z,7.60
2022-11-30T11:10:05.731Z,7.60
2022-11-30T11:12:54.157Z,7.50
2022-11-30T11:15:39.772Z,7.40
2022-11-30T11:18:27.474Z,7.30
2022-11-30T11:21:12.930Z,7.20
2022-11-30T11:23:58.705Z,7.10
2022-11-30T11:26:51.093Z,7.10
2022-11-30T11:29:37.291Z,7.10
2022-11-30T11:32:27.213Z,7.00
2022-11-30T11:35:35.603Z,7.00
2022-11-30T11:38:21.322Z,7.00
2022-11-30T11:41:18.251Z,7.10
2022-11-30T11:44:09.816Z,7.20
2022-11-30T11:47:06.980Z,7.20
2022-11-30T11:50:03.790Z,7.10
2022-11-30T11:52:50.033Z,7.10
2022-11-30T11:55:36.492Z,7.10
2022-11-30T11:58:47.825Z,7.10
2022-11-30T12:01:58.738Z,7.10
2022-11-30T12:04:50.084Z,7.10
2022-11-30T12:07:42.744Z,7.20
2022-11-30T12:10:53.411Z,7.30
2022-11-30T12:13:42.071Z,7.30
2022-11-30T12:16:49.420Z,7.20
2022-11-30T12:19:57.073Z,7.10
2022-11-30T12:23:01.409Z,7.20
2022-11-30T12:25:52.511Z,7.10
2022-11-30T12:29:01.860Z,7.10
2022-11-30T12:32:03.416Z,7.10
2022-11-30T12:35:03.163Z,7.10
2022-11-30T12:38:14.452Z,7.10
2022-11-30T12:41:29.030Z,7.10
2022-11-30T12:44:42.681Z,7.10
2022-11-30T12:47:59.423Z,7.20
2022-11-30T12:51:07.972Z,7.10
2022-11-30T12:54:19.614Z,7.00
2022-11-30T12:57:13.071Z,7.10
2022-11-30T13:00:33.998Z,7.20
2022-11-30T13:03:51.074Z,7.10
2022-11-30T13:06:47.810Z,7.10
2022-11-30T13:09:41.643Z,7.10
2022-11-30T13:12:36.860Z,7.00
2022-11-30T13:15:29.475Z,6.90
2022-11-30T13:18:19.415Z,6.90
2022-11-30T13:21:22.056Z,6.90
2022-11-30T13:24:26.676Z,7.00
2022-11-30T13:27:15.288Z,6.90
2022-11-30T13:30:16.893Z,6.90
2022-11-30T13:33:40.521Z,6.80
2022-11-30T13:36:38.100Z,6.70
2022-11-30T13:39:26.193Z,6.70
2022-11-30T13:42:16.151Z,6.70
2022-11-30T13:45:13.924Z,6.70
2022-11-30T13:48:00.576Z,6.80
2022-11-30T13:50:49.158Z,6.80
2022-11-30T13:53:38.629Z,6.70
2022-11-30T13:56:34.266Z,6.70
2022-11-30T13:59:36.963Z,6.70
2022-11-30T14:02:32.369Z,6.70
2022-11-30T14:05:17.994Z,6.60
2022-11-30T14:08:03.692Z,6.70
2022-11-30T14:10:53.556Z,6.60
2022-11-30T14:13:39.309Z,6.60
2022-11-30T14:16:30.266Z,6.60
2022-11-30T14:19:16.070Z,6.50
2022-11-30T14:22:03.755Z,6.50
2022-11-30T14:24:50.060Z,6.50
2022-11-30T14:27:36.710Z,6.50
2022-11-30T14:30:23.826Z,6.50
2022-11-30T14:33:40.975Z,6.60
2022-11-30T14:36:37.923Z,6.60
2022-11-30T14:39:36.082Z,6.50
2022-11-30T14:42:27.754Z,6.50
2022-11-30T14:45:33.711Z,6.50
2022-11-30T14:48:19.345Z,6.40
2022-11-30T14:51:04.967Z,6.30
2022-11-30T14:54:08.788Z,6.30
2022-11-30T14:57:02.959Z,6.20
2022-11-30T14:59:51.811Z,6.20
2022-11-30T15:02:39.076Z,6.10
2022-11-30T15:05:28.557Z,6.10
2022-11-30T15:08:16.637Z,6.00
2022-11-30T15:11:12.260Z,6.00
2022-11-30T15:14:09.111Z,6.00
2022-11-30T15:16:57.337Z,6.00
2022-11-30T15:19:48.378Z,6.10
2022-11-30T15:22:35.329Z,6.10
2022-11-30T15:25:23.150Z,6.20
2022-11-30T15:28:12.572Z,6.20
2022-11-30T15:31:01.387Z,6.20
2022-11-30T15:33:48.782Z,6.20
2022-11-30T15:36:39.461Z,6.20
2022-11-30T15:39:26.923Z,6.20
2022-11-30T15:42:27.262Z,6.00
2022-11-30T15:45:23.397Z,5.90
2022-11-30T15:48:31.771Z,5.90
2022-11-30T15:51:26.499Z,5.90
2022-11-30T15:54:12.450Z,6.00
2022-11-30T15:56:58.228Z,6.00
2022-11-30T15:59:44.340Z,6.10
2022-11-30T16:02:36.237Z,6.10
2022-11-30T16:05:24.451Z,6.10
2022-11-30T16:08:18.287Z,6.10
2022-11-30T16:11:08.006Z,6.10
2022-11-30T16:13:53.765Z,6.10
2022-11-30T16:16:39.401Z,6.10
2022-11-30T16:19:25.083Z,6.10
2022-11-30T16:22:15.579Z,6.20
2022-11-30T16:25:01.111Z,6.20
2022-11-30T16:27:48.019Z,6.30
2022-11-30T16:30:33.834Z,6.30
2022-11-30T16:33:22.376Z,6.30
2022-11-30T16:36:12.869Z,6.30
2022-11-30T16:38:58.352Z,6.30
2022-11-30T16:41:45.326Z,6.20
2022-11-30T16:44:30.618Z,6.10
2022-11-30T16:47:16.139Z,6.10
2022-11-30T16:50:01.671Z,6.10
2022-11-30T16:52:47.449Z,6.00
2022-11-30T16:55:37.646Z,6.10
2022-11-30T16:58:23.290Z,6.10
2022-11-30T17:01:16.165Z,6.10
2022-11-30T17:04:16.121Z,6.10
2022-11-30T17:07:02.937Z,6.10
2022-11-30T17:09:49.048Z,6.20
2022-11-30T17:12:35.610Z,6.10
2022-11-30T17:15:23.920Z,6.10
2022-11-30T17:18:09.532Z,6.10
2022-11-30T17:20:55.593Z,6.10
2022-11-30T17:23:41.559Z,6.10
2022-11-30T17:26:27.010Z,6.00
2022-11-30T17:29:12.463Z,5.90
2022-11-30T17:31:57.973Z,5.80
2022-11-30T17:34:43.495Z,5.80
2022-11-30T17:37:29.012Z,5.80
2022-11-30T17:40:16.249Z,5.80
2022-11-30T17:43:01.693Z,5.80
2022-11-30T17:45:47.269Z,5.80
2022-11-30T17:48:32.839Z,5.70
2022-11-30T17:51:18.284Z,5.70
2022-11-30T17:54:04.067Z,5.70
2022-11-30T17:56:49.730Z,5.70
2022-11-30T17:59:35.153Z,5.70
2022-11-30T18:02:20.697Z,5.70
2022-11-30T18:05:06.747Z,5.80
2022-11-30T18:07:52.072Z,5.80
2022-11-30T18:10:41.118Z,5.80
2022-11-30T18:13:29.663Z,5.90
2022-11-30T18:16:18.319Z,5.90
2022-11-30T18:19:11.863Z,6.00
2022-11-30T18:21:57.636Z,5.90
2022-11-30T18:24:43.333Z,6.00
2022-11-30T18:27:28.754Z,6.00
2022-11-30T18:30:14.571Z,5.90
2022-11-30T18:33:01.269Z,5.80
2022-11-30T18:35:46.738Z,5.80
2022-11-30T18:38:37.243Z,5.80
2022-11-30T18:41:26.207Z,5.70
2022-11-30T18:44:12.236Z,5.70
2022-11-30T18:46:57.687Z,5.70
2022-11-30T18:49:43.003Z,5.60
2022-11-30T18:52:28.453Z,5.70
2022-11-30T18:55:13.981Z,5.70
2022-11-30T18:58:01.180Z,5.70
2022-11-30T19:00:46.996Z,5.70
2022-11-30T19:03:32.629Z,5.60
2022-11-30T19:06:18.344Z,5.60
2022-11-30T19:09:13.087Z,5.50
2022-11-30T19:12:00.149Z,5.60
2022-11-30T19:14:46.128Z,5.50
2022-11-30T19:17:32.529Z,5.40
2022-11-30T19:20:18.920Z,5.50
2022-11-30T19:23:04.600Z,5.50
2022-11-30T19:25:50.315Z,5.50
2022-11-30T19:28:37.688Z,5.40
2022-11-30T19:31:24.095Z,5.40
2022-11-30T19:34:13.097Z,5.30
2022-11-30T19:36:58.939Z,5.30
2022-11-30T19:39:44.537Z,5.20
2022-11-30T19:42:31.330Z,5.20
2022-11-30T19:45:17.378Z,5.20
2022-11-30T19:48:03.218Z,5.20
2022-11-30T19:50:49.109Z,5.10
2022-11-30T19:53:36.160Z,5.10
2022-11-30T19:56:23.318Z,5.10
2022-11-30T19:59:09.516Z,5.10
2022-11-30T20:01:55.406Z,4.90
2022-11-30T20:04:40.928Z,4.80
2022-11-30T20:07:26.761Z,4.80
2022-11-30T20:10:15.681Z,4.80
2022-11-30T20:13:01.381Z,4.70
2022-11-30T20:15:46.936Z,4.70
2022-11-30T20:18:32.594Z,4.70
2022-11-30T20:21:23.608Z,4.60
2022-11-30T20:24:11.792Z,4.60
2022-11-30T20:26:57.528Z,4.50
2022-11-30T20:29:43.234Z,4.50
2022-11-30T20:32:29.193Z,4.40
2022-11-30T20:35:14.692Z,4.30
2022-11-30T20:38:00.563Z,4.20
2022-11-30T20:40:49.134Z,4.20
2022-11-30T20:43:35.089Z,4.20
2022-11-30T20:46:32.316Z,4.10
2022-11-30T20:49:21.255Z,4.10
2022-11-30T20:52:06.895Z,3.90
2022-11-30T20:54:52.430Z,4.00
2022-11-30T20:57:37.985Z,3.90
2022-11-30T21:00:23.993Z,3.80
2022-11-30T21:03:09.684Z,3.80
2022-11-30T21:05:55.157Z,3.70
2022-11-30T21:08:41.327Z,3.80
2022-11-30T21:11:28.277Z,3.80
2022-11-30T21:14:14.857Z,3.80
2022-11-30T21:17:00.811Z,3.80
2022-11-30T21:19:46.699Z,3.80
2022-11-30T21:22:32.316Z,3.80
2022-11-30T21:25:18.011Z,3.90
2022-11-30T21:28:03.772Z,3.90
2022-11-30T21:30:49.289Z,3.90
2022-11-30T21:33:34.778Z,3.90
2022-11-30T21:36:20.465Z,3.90
2022-11-30T21:39:09.303Z,3.90
2022-11-30T21:41:54.984Z,4.00
2022-11-30T21:44:40.458Z,4.00
2022-11-30T21:47:25.813Z,4.00
2022-11-30T21:50:11.599Z,4.10
2022-11-30T21:52:57.315Z,4.10
2022-11-30T21:55:42.645Z,4.10
2022-11-30T21:58:30.848Z,4.00
2022-11-30T22:01:21.749Z,4.00
2022-11-30T22:04:09.383Z,4.00
2022-11-30T22:06:55.185Z,4.00
2022-11-30T22:09:40.793Z,3.90
2022-11-30T22:12:26.252Z,3.90
2022-11-30T22:15:11.762Z,3.90
2022-11-30T22:17:57.356Z,3.80
2022-11-30T22:20:42.723Z,3.80
2022-11-30T22:23:28.308Z,3.80
2022-11-30T22:26:18.091Z,3.80
2022-11-30T22:29:18.448Z,3.80
2022-11-30T22:32:04.139Z,3.80
2022-11-30T22:34:49.534Z,3.70
2022-11-30T22:37:35.107Z,3.60
2022-11-30T22:40:20.588Z,3.50
2022-11-30T22:43:06.155Z,3.60
2022-11-30T22:45:51.639Z,3.60
2022-11-30T22:48:37.526Z,3.70
2022-11-30T22:51:25.355Z,3.70
2022-11-30T22:54:11.650Z,3.70
2022-11-30T22:56:57.306Z,3.70
2022-11-30T22:59:42.852Z,3.70
2022-11-30T23:02:28.398Z,3.70
2022-11-30T23:05:13.830Z,3.60
2022-11-30T23:07:59.434Z,3.50
2022-11-30T23:10:45.109Z,3.60
2022-11-30T23:13:31.386Z,3.50
2022-11-30T23:16:18.022Z,3.50
2022-11-30T23:19:04.447Z,3.50
2022-11-30T23:21:50.340Z,3.50
2022-11-30T23:24:35.958Z,3.50
2022-11-30T23:27:21.476Z,3.50
2022-11-30T23:30:07.652Z,3.60
2022-11-30T23:32:57.111Z,3.50
2022-11-30T23:35:43.796Z,3.50
2022-11-30T23:38:29.473Z,3.60
2022-11-30T23:41:15.889Z,3.60
2022-11-30T23:44:02.102Z,3.50
2022-11-30T23:46:48.157Z,3.50
2022-11-30T23:49:33.851Z,3.50
2022-11-30T23:52:19.303Z,3.60
2022-11-30T23:55:05.326Z,3.50
2022-11-30T23:57:50.895Z,3.50
